sensor_id;sensor_type;location;lat;lon;timestamp;temperature;humidity
3262;DHT22;1643;47.746;9.000;2022-12-18T00:02:15;-0.40;99.90
3262;DHT22;1643;47.746;9.000;2022-12-18T00:04:40;-0.30;99.90
3262;DHT22;1643;47.746;9.000;2022-12-18T00:07:06;-0.30;99.90
3262;DHT22;1643;47.746;9.000;2022-12-18T00:09:31;-0.40;99.90
3262;DHT22;1643;47.746;9.000;2022-12-18T00:11:57;-0.30;99.90
3262;DHT22;1643;47.746;9.000;2022-12-18T00:14:22;-0.30;99.90
3262;DHT22;1643;47.746;9.000;2022-12-18T00:16:48;-0.30;99.90
3262;DHT22;1643;47.746;9.000;2022-12-18T00:19:14;-0.20;99.90
3262;DHT22;1643;47.746;9.000;2022-12-18T00:21:41;-0.30;99.90
3262;DHT22;1643;47.746;9.000;2022-12-18T00:24:08;-0.40;99.90
3262;DHT22;1643;47.746;9.000;2022-12-18T00:26:34;-0.40;99.90
3262;DHT22;1643;47.746;9.000;2022-12-18T00:29:10;-0.60;99.90
3262;DHT22;1643;47.746;9.000;2022-12-18T00:31:37;-0.50;99.90
3262;DHT22;1643;47.746;9.000;2022-12-18T00:34:03;-0.40;99.90
3262;DHT22;1643;47.746;9.000;2022-12-18T00:36:32;-0.40;99.90
3262;DHT22;1643;47.746;9.000;2022-12-18T00:39:00;-0.50;99.90
3262;DHT22;1643;47.746;9.000;2022-12-18T00:41:27;-0.60;99.90
3262;DHT22;1643;47.746;9.000;2022-12-18T00:44:13;-0.70;99.90
3262;DHT22;1643;47.746;9.000;2022-12-18T00:46:39;-0.80;99.90
3262;DHT22;1643;47.746;9.000;2022-12-18T00:49:05;-0.70;99.90
3262;DHT22;1643;47.746;9.000;2022-12-18T00:51:31;-0.70;99.90
3262;DHT22;1643;47.746;9.000;2022-12-18T00:53:57;-0.80;99.90
3262;DHT22;1643;47.746;9.000;2022-12-18T00:56:23;-0.80;99.90
3262;DHT22;1643;47.746;9.000;2022-12-18T00:58:49;-0.80;99.90
3262;DHT22;1643;47.746;9.000;2022-12-18T01:01:15;-0.90;99.90
3262;DHT22;1643;47.746;9.000;2022-12-18T01:03:41;-0.90;99.90
3262;DHT22;1643;47.746;9.000;2022-12-18T01:06:09;-0.90;99.90
3262;DHT22;1643;47.746;9.000;2022-12-18T01:08:35;-0.80;99.90
3262;DHT22;1643;47.746;9.000;2022-12-18T01:11:08;-0.70;99.90
3262;DHT22;1643;47.746;9.000;2022-12-18T01:13:34;-0.60;99.90
3262;DHT22;1643;47.746;9.000;2022-12-18T01:16:00;-0.70;99.90
3262;DHT22;1643;47.746;9.000;2022-12-18T01:18:25;-0.80;99.90
3262;DHT22;1643;47.746;9.000;2022-12-18T01:20:51;-0.70;99.90
3262;DHT22;1643;47.746;9.000;2022-12-18T01:23:16;-0.70;99.90
3262;DHT22;1643;47.746;9.000;2022-12-18T01:25:42;-0.80;99.90
3262;DHT22;1643;47.746;9.000;2022-12-18T01:28:08;-0.90;99.90
3262;DHT22;1643;47.746;9.000;2022-12-18T01:30:33;-0.70;99.90
3262;DHT22;1643;47.746;9.000;2022-12-18T01:32:59;-0.60;99.90
3262;DHT22;1643;47.746;9.000;2022-12-18T01:35:24;-0.50;99.90
3262;DHT22;1643;47.746;9.000;2022-12-18T01:37:54;-0.50;99.90
3262;DHT22;1643;47.746;9.000;2022-12-18T01:40:19;-0.50;99.90
3262;DHT22;1643;47.746;9.000;2022-12-18T01:42:52;-0.60;99.90
3262;DHT22;1643;47.746;9.000;2022-12-18T01:48:05;-0.70;99.90
3262;DHT22;1643;47.746;9.000;2022-12-18T01:50:41;-0.60;99.90
3262;DHT22;1643;47.746;9.000;2022-12-18T01:53:11;-0.50;99.90
3262;DHT22;1643;47.746;9.000;2022-12-18T01:55:43;-0.50;99.90
3262;DHT22;1643;47.746;9.000;2022-12-18T01:58:10;-0.50;99.90
3262;DHT22;1643;47.746;9.000;2022-12-18T02:00:36;-0.60;99.90
3262;DHT22;1643;47.746;9.000;2022-12-18T02:03:01;-0.60;99.90
3262;DHT22;1643;47.746;9.000;2022-12-18T02:08:20;-0.70;99.90
3262;DHT22;1643;47.746;9.000;2022-12-18T02:11:07;-0.60;99.90
3262;DHT22;1643;47.746;9.000;2022-12-18T02:13:46;-0.60;99.90
3262;DHT22;1643;47.746;9.000;2022-12-18T02:19:06;-0.50;99.90
3262;DHT22;1643;47.746;9.000;2022-12-18T02:24:29;-0.50;99.90
3262;DHT22;1643;47.746;9.000;2022-12-18T02:27:03;-0.50;99.90
3262;DHT22;1643;47.746;9.000;2022-12-18T02:29:35;-0.50;99.90
3262;DHT22;1643;47.746;9.000;2022-12-18T02:32:04;-0.50;99.90
3262;DHT22;1643;47.746;9.000;2022-12-18T02:34:33;-0.70;99.90
3262;DHT22;1643;47.746;9.000;2022-12-18T02:37:03;-0.60;99.90
3262;DHT22;1643;47.746;9.000;2022-12-18T02:39:31;-0.50;99.90
3262;DHT22;1643;47.746;9.000;2022-12-18T02:41:58;-0.50;99.90
3262;DHT22;1643;47.746;9.000;2022-12-18T02:44:24;-0.40;99.90
3262;DHT22;1643;47.746;9.000;2022-12-18T02:46:53;-0.40;99.90
3262;DHT22;1643;47.746;9.000;2022-12-18T02:52:31;-0.40;99.90
3262;DHT22;1643;47.746;9.000;2022-12-18T02:55:13;-0.40;99.90
3262;DHT22;1643;47.746;9.000;2022-12-18T02:58:03;-0.30;99.90
3262;DHT22;1643;47.746;9.000;2022-12-18T03:00:54;-0.30;99.90
3262;DHT22;1643;47.746;9.000;2022-12-18T03:03:43;-0.30;99.90
3262;DHT22;1643;47.746;9.000;2022-12-18T03:06:17;-0.30;99.90
3262;DHT22;1643;47.746;9.000;2022-12-18T03:08:50;-0.30;99.90
3262;DHT22;1643;47.746;9.000;2022-12-18T03:11:16;-0.30;99.90
3262;DHT22;1643;47.746;9.000;2022-12-18T03:14:03;-0.20;99.90
3262;DHT22;1643;47.746;9.000;2022-12-18T03:16:31;-0.30;99.90
3262;DHT22;1643;47.746;9.000;2022-12-18T03:19:11;-0.20;99.90
3262;DHT22;1643;47.746;9.000;2022-12-18T03:21:51;-0.10;99.90
3262;DHT22;1643;47.746;9.000;2022-12-18T03:24:18;-0.20;99.90
3262;DHT22;1643;47.746;9.000;2022-12-18T03:26:47;-0.20;99.90
3262;DHT22;1643;47.746;9.000;2022-12-18T03:29:21;-0.20;99.90
3262;DHT22;1643;47.746;9.000;2022-12-18T03:31:53;-0.20;99.90
3262;DHT22;1643;47.746;9.000;2022-12-18T03:34:24;-0.20;99.90
3262;DHT22;1643;47.746;9.000;2022-12-18T03:36:52;-0.30;99.90
3262;DHT22;1643;47.746;9.000;2022-12-18T03:39:19;-0.30;99.90
3262;DHT22;1643;47.746;9.000;2022-12-18T03:41:58;-0.30;99.90
3262;DHT22;1643;47.746;9.000;2022-12-18T03:44:39;-0.30;99.90
3262;DHT22;1643;47.746;9.000;2022-12-18T03:50:20;-0.20;99.90
3262;DHT22;1643;47.746;9.000;2022-12-18T03:55:12;-0.20;99.90
3262;DHT22;1643;47.746;9.000;2022-12-18T03:57:38;-0.20;99.90
3262;DHT22;1643;47.746;9.000;2022-12-18T04:00:09;-0.20;99.90
3262;DHT22;1643;47.746;9.000;2022-12-18T04:02:35;-0.20;99.90
3262;DHT22;1643;47.746;9.000;2022-12-18T04:05:05;-0.20;99.90
3262;DHT22;1643;47.746;9.000;2022-12-18T04:07:32;-0.30;99.90
3262;DHT22;1643;47.746;9.000;2022-12-18T04:09:59;-0.20;99.90
3262;DHT22;1643;47.746;9.000;2022-12-18T04:12:28;-0.20;99.90
3262;DHT22;1643;47.746;9.000;2022-12-18T04:14:54;-0.20;99.90
3262;DHT22;1643;47.746;9.000;2022-12-18T04:17:21;-0.10;99.90
3262;DHT22;1643;47.746;9.000;2022-12-18T04:19:47;-0.20;99.90
3262;DHT22;1643;47.746;9.000;2022-12-18T04:22:12;-0.20;99.90
3262;DHT22;1643;47.746;9.000;2022-12-18T04:24:38;-0.20;99.90
3262;DHT22;1643;47.746;9.000;2022-12-18T04:27:04;-0.20;99.90
3262;DHT22;1643;47.746;9.000;2022-12-18T04:29:30;-0.20;99.90
3262;DHT22;1643;47.746;9.000;2022-12-18T04:31:55;-0.20;99.90
3262;DHT22;1643;47.746;9.000;2022-12-18T04:34:21;-0.20;99.90
3262;DHT22;1643;47.746;9.000;2022-12-18T04:36:47;-0.20;99.90
3262;DHT22;1643;47.746;9.000;2022-12-18T04:39:13;-0.20;99.90
3262;DHT22;1643;47.746;9.000;2022-12-18T04:41:39;-0.20;99.90
3262;DHT22;1643;47.746;9.000;2022-12-18T04:44:04;-0.20;99.90
3262;DHT22;1643;47.746;9.000;2022-12-18T04:46:30;-0.10;99.90
3262;DHT22;1643;47.746;9.000;2022-12-18T04:48:56;-0.20;99.90
3262;DHT22;1643;47.746;9.000;2022-12-18T04:51:22;-0.20;99.90
3262;DHT22;1643;47.746;9.000;2022-12-18T04:53:47;-0.20;99.90
3262;DHT22;1643;47.746;9.000;2022-12-18T04:56:14;-0.10;99.90
3262;DHT22;1643;47.746;9.000;2022-12-18T04:58:42;-0.10;99.90
3262;DHT22;1643;47.746;9.000;2022-12-18T05:01:09;-0.10;99.90
3262;DHT22;1643;47.746;9.000;2022-12-18T05:03:36;-0.20;99.90
3262;DHT22;1643;47.746;9.000;2022-12-18T05:06:03;-0.10;99.90
3262;DHT22;1643;47.746;9.000;2022-12-18T05:08:28;-0.10;99.90
3262;DHT22;1643;47.746;9.000;2022-12-18T05:11:01;-0.10;99.90
3262;DHT22;1643;47.746;9.000;2022-12-18T05:13:27;-0.10;99.90
3262;DHT22;1643;47.746;9.000;2022-12-18T05:15:53;-0.10;99.90
3262;DHT22;1643;47.746;9.000;2022-12-18T05:18:19;-0.20;99.90
3262;DHT22;1643;47.746;9.000;2022-12-18T05:20:45;-0.20;99.90
3262;DHT22;1643;47.746;9.000;2022-12-18T05:23:11;-0.20;99.90
3262;DHT22;1643;47.746;9.000;2022-12-18T05:25:37;-0.10;99.90
3262;DHT22;1643;47.746;9.000;2022-12-18T05:28:02;-0.10;99.90
3262;DHT22;1643;47.746;9.000;2022-12-18T05:30:28;-0.10;99.90
3262;DHT22;1643;47.746;9.000;2022-12-18T05:32:54;-0.10;99.90
3262;DHT22;1643;47.746;9.000;2022-12-18T05:35:20;-0.10;99.90
3262;DHT22;1643;47.746;9.000;2022-12-18T05:37:45;-0.10;99.90
3262;DHT22;1643;47.746;9.000;2022-12-18T05:40:11;-0.10;99.90
3262;DHT22;1643;47.746;9.000;2022-12-18T05:42:37;-0.10;99.90
3262;DHT22;1643;47.746;9.000;2022-12-18T05:45:03;-0.10;99.90
3262;DHT22;1643;47.746;9.000;2022-12-18T05:47:29;-0.10;99.90
3262;DHT22;1643;47.746;9.000;2022-12-18T05:49:55;-0.10;99.90
3262;DHT22;1643;47.746;9.000;2022-12-18T05:52:20;-0.10;99.90
3262;DHT22;1643;47.746;9.000;2022-12-18T05:54:46;-0.10;99.90
3262;DHT22;1643;47.746;9.000;2022-12-18T05:57:12;-0.10;99.90
3262;DHT22;1643;47.746;9.000;2022-12-18T05:59:37;-0.20;99.90
3262;DHT22;1643;47.746;9.000;2022-12-18T06:02:03;-0.20;99.90
3262;DHT22;1643;47.746;9.000;2022-12-18T06:04:29;-0.10;99.90
3262;DHT22;1643;47.746;9.000;2022-12-18T06:06:54;-0.10;99.90
3262;DHT22;1643;47.746;9.000;2022-12-18T06:09:20;-0.10;99.90
3262;DHT22;1643;47.746;9.000;2022-12-18T06:11:46;-0.10;99.90
3262;DHT22;1643;47.746;9.000;2022-12-18T06:14:11;-0.10;99.90
3262;DHT22;1643;47.746;9.000;2022-12-18T06:16:37;-0.10;99.90
3262;DHT22;1643;47.746;9.000;2022-12-18T06:19:04;-0.20;99.90
3262;DHT22;1643;47.746;9.000;2022-12-18T06:21:31;-0.10;99.90
3262;DHT22;1643;47.746;9.000;2022-12-18T06:23:57;-0.10;99.90
3262;DHT22;1643;47.746;9.000;2022-12-18T06:26:22;-0.20;99.90
3262;DHT22;1643;47.746;9.000;2022-12-18T06:28:48;-0.20;99.90
3262;DHT22;1643;47.746;9.000;2022-12-18T06:31:14;-0.20;99.90
3262;DHT22;1643;47.746;9.000;2022-12-18T06:33:40;-0.20;99.90
3262;DHT22;1643;47.746;9.000;2022-12-18T06:36:09;-0.20;99.90
3262;DHT22;1643;47.746;9.000;2022-12-18T06:38:36;-0.20;99.90
3262;DHT22;1643;47.746;9.000;2022-12-18T06:41:09;-0.10;99.90
3262;DHT22;1643;47.746;9.000;2022-12-18T06:43:35;-0.10;99.90
3262;DHT22;1643;47.746;9.000;2022-12-18T06:46:02;-0.10;99.90
3262;DHT22;1643;47.746;9.000;2022-12-18T06:48:28;-0.10;99.90
3262;DHT22;1643;47.746;9.000;2022-12-18T06:50:54;-0.10;99.90
3262;DHT22;1643;47.746;9.000;2022-12-18T06:53:20;-0.10;99.90
3262;DHT22;1643;47.746;9.000;2022-12-18T06:55:46;-0.10;99.90
3262;DHT22;1643;47.746;9.000;2022-12-18T06:58:11;-0.10;99.90
3262;DHT22;1643;47.746;9.000;2022-12-18T07:00:37;-0.10;99.90
3262;DHT22;1643;47.746;9.000;2022-12-18T07:03:02;-0.10;99.90
3262;DHT22;1643;47.746;9.000;2022-12-18T07:05:28;-0.10;99.90
3262;DHT22;1643;47.746;9.000;2022-12-18T07:07:53;-0.10;99.90
3262;DHT22;1643;47.746;9.000;2022-12-18T07:10:19;-0.10;99.90
3262;DHT22;1643;47.746;9.000;2022-12-18T07:12:45;-0.10;99.90
3262;DHT22;1643;47.746;9.000;2022-12-18T07:15:11;-0.10;99.90
3262;DHT22;1643;47.746;9.000;2022-12-18T07:17:37;0.00;99.90
3262;DHT22;1643;47.746;9.000;2022-12-18T07:20:03;-0.10;99.90
3262;DHT22;1643;47.746;9.000;2022-12-18T07:22:29;0.00;99.90
3262;DHT22;1643;47.746;9.000;2022-12-18T07:24:54;-0.10;99.90
3262;DHT22;1643;47.746;9.000;2022-12-18T07:27:20;-0.10;99.90
3262;DHT22;1643;47.746;9.000;2022-12-18T07:29:46;-0.10;99.90
3262;DHT22;1643;47.746;9.000;2022-12-18T07:32:12;0.00;99.90
3262;DHT22;1643;47.746;9.000;2022-12-18T07:34:37;0.00;99.90
3262;DHT22;1643;47.746;9.000;2022-12-18T07:37:03;0.00;99.90
3262;DHT22;1643;47.746;9.000;2022-12-18T07:39:29;0.00;99.90
3262;DHT22;1643;47.746;9.000;2022-12-18T07:41:55;0.00;99.90
3262;DHT22;1643;47.746;9.000;2022-12-18T07:44:39;0.00;99.90
3262;DHT22;1643;47.746;9.000;2022-12-18T07:47:05;0.00;99.90
3262;DHT22;1643;47.746;9.000;2022-12-18T07:49:30;0.10;99.90
3262;DHT22;1643;47.746;9.000;2022-12-18T07:51:56;0.10;99.90
3262;DHT22;1643;47.746;9.000;2022-12-18T07:54:23;0.20;99.90
3262;DHT22;1643;47.746;9.000;2022-12-18T07:56:50;0.20;99.90
3262;DHT22;1643;47.746;9.000;2022-12-18T07:59:15;0.20;99.90
3262;DHT22;1643;47.746;9.000;2022-12-18T08:01:41;0.20;99.90
3262;DHT22;1643;47.746;9.000;2022-12-18T08:04:06;0.20;99.90
3262;DHT22;1643;47.746;9.000;2022-12-18T08:06:32;0.20;99.90
3262;DHT22;1643;47.746;9.000;2022-12-18T08:08:58;0.20;99.90
3262;DHT22;1643;47.746;9.000;2022-12-18T08:11:25;0.20;99.90
3262;DHT22;1643;47.746;9.000;2022-12-18T08:13:51;0.20;99.90
3262;DHT22;1643;47.746;9.000;2022-12-18T08:16:18;0.30;99.90
3262;DHT22;1643;47.746;9.000;2022-12-18T08:18:43;0.20;99.90
3262;DHT22;1643;47.746;9.000;2022-12-18T08:23:36;0.30;99.90
3262;DHT22;1643;47.746;9.000;2022-12-18T08:26:02;0.30;99.90
3262;DHT22;1643;47.746;9.000;2022-12-18T08:28:27;0.30;99.90
3262;DHT22;1643;47.746;9.000;2022-12-18T08:30:53;0.30;99.90
3262;DHT22;1643;47.746;9.000;2022-12-18T08:33:18;0.30;99.90
3262;DHT22;1643;47.746;9.000;2022-12-18T08:35:44;0.30;99.90
3262;DHT22;1643;47.746;9.000;2022-12-18T08:38:10;0.30;99.90
3262;DHT22;1643;47.746;9.000;2022-12-18T08:40:35;0.30;99.90
3262;DHT22;1643;47.746;9.000;2022-12-18T08:43:01;0.40;99.90
3262;DHT22;1643;47.746;9.000;2022-12-18T08:45:45;0.40;99.90
3262;DHT22;1643;47.746;9.000;2022-12-18T08:48:11;0.40;99.90
3262;DHT22;1643;47.746;9.000;2022-12-18T08:50:36;0.40;99.90
3262;DHT22;1643;47.746;9.000;2022-12-18T08:53:02;0.40;99.90
3262;DHT22;1643;47.746;9.000;2022-12-18T08:55:28;0.40;99.90
3262;DHT22;1643;47.746;9.000;2022-12-18T08:57:54;0.50;99.90
3262;DHT22;1643;47.746;9.000;2022-12-18T09:00:19;0.50;99.90
3262;DHT22;1643;47.746;9.000;2022-12-18T09:02:45;0.50;99.90
3262;DHT22;1643;47.746;9.000;2022-12-18T09:05:11;0.50;99.90
3262;DHT22;1643;47.746;9.000;2022-12-18T09:07:36;0.50;99.90
3262;DHT22;1643;47.746;9.000;2022-12-18T09:10:03;0.50;99.90
3262;DHT22;1643;47.746;9.000;2022-12-18T09:12:28;0.50;99.90
3262;DHT22;1643;47.746;9.000;2022-12-18T09:14:54;0.50;99.90
3262;DHT22;1643;47.746;9.000;2022-12-18T09:17:21;0.60;99.90
3262;DHT22;1643;47.746;9.000;2022-12-18T09:19:47;0.50;99.90
3262;DHT22;1643;47.746;9.000;2022-12-18T09:22:13;0.60;99.90
3262;DHT22;1643;47.746;9.000;2022-12-18T09:24:38;0.60;99.90
3262;DHT22;1643;47.746;9.000;2022-12-18T09:27:04;0.60;99.90
3262;DHT22;1643;47.746;9.000;2022-12-18T09:29:29;0.70;99.90
3262;DHT22;1643;47.746;9.000;2022-12-18T09:31:55;0.70;99.90
3262;DHT22;1643;47.746;9.000;2022-12-18T09:34:21;0.70;99.90
3262;DHT22;1643;47.746;9.000;2022-12-18T09:36:47;0.80;99.90
3262;DHT22;1643;47.746;9.000;2022-12-18T09:39:13;0.80;99.90
3262;DHT22;1643;47.746;9.000;2022-12-18T09:41:52;0.90;99.90
3262;DHT22;1643;47.746;9.000;2022-12-18T09:44:39;0.90;99.90
3262;DHT22;1643;47.746;9.000;2022-12-18T09:47:30;0.90;99.90
3262;DHT22;1643;47.746;9.000;2022-12-18T09:50:04;0.80;99.90
3262;DHT22;1643;47.746;9.000;2022-12-18T09:52:37;0.80;99.90
3262;DHT22;1643;47.746;9.000;2022-12-18T09:55:14;0.80;99.90
3262;DHT22;1643;47.746;9.000;2022-12-18T09:57:49;0.80;99.90
3262;DHT22;1643;47.746;9.000;2022-12-18T10:00:19;0.80;99.90
3262;DHT22;1643;47.746;9.000;2022-12-18T10:02:46;0.80;99.90
3262;DHT22;1643;47.746;9.000;2022-12-18T10:05:15;0.90;99.90
3262;DHT22;1643;47.746;9.000;2022-12-18T10:07:55;0.90;99.90
3262;DHT22;1643;47.746;9.000;2022-12-18T10:13:42;0.80;99.90
3262;DHT22;1643;47.746;9.000;2022-12-18T10:16:44;0.80;99.90
3262;DHT22;1643;47.746;9.000;2022-12-18T10:24:43;0.90;99.90
3262;DHT22;1643;47.746;9.000;2022-12-18T10:27:14;0.90;99.90
3262;DHT22;1643;47.746;9.000;2022-12-18T10:29:41;0.80;99.90
3262;DHT22;1643;47.746;9.000;2022-12-18T10:32:17;0.70;99.90
3262;DHT22;1643;47.746;9.000;2022-12-18T10:34:46;0.70;99.90
3262;DHT22;1643;47.746;9.000;2022-12-18T10:37:21;0.80;99.90
3262;DHT22;1643;47.746;9.000;2022-12-18T10:40:06;0.80;99.90
3262;DHT22;1643;47.746;9.000;2022-12-18T10:42:32;0.90;99.90
3262;DHT22;1643;47.746;9.000;2022-12-18T10:45:11;0.90;99.90
3262;DHT22;1643;47.746;9.000;2022-12-18T10:47:46;0.90;99.90
3262;DHT22;1643;47.746;9.000;2022-12-18T10:52:59;0.80;99.90
3262;DHT22;1643;47.746;9.000;2022-12-18T10:55:34;0.80;99.90
3262;DHT22;1643;47.746;9.000;2022-12-18T10:58:27;0.70;99.90
3262;DHT22;1643;47.746;9.000;2022-12-18T11:01:11;0.70;99.90
3262;DHT22;1643;47.746;9.000;2022-12-18T11:03:44;0.70;99.90
3262;DHT22;1643;47.746;9.000;2022-12-18T11:06:21;0.70;99.90
3262;DHT22;1643;47.746;9.000;2022-12-18T11:09:19;0.80;99.90
3262;DHT22;1643;47.746;9.000;2022-12-18T11:11:49;0.90;99.90
3262;DHT22;1643;47.746;9.000;2022-12-18T11:14:50;0.90;99.90
3262;DHT22;1643;47.746;9.000;2022-12-18T11:17:39;0.90;99.90
3262;DHT22;1643;47.746;9.000;2022-12-18T11:20:23;0.90;99.90
3262;DHT22;1643;47.746;9.000;2022-12-18T11:23:04;1.00;99.90
3262;DHT22;1643;47.746;9.000;2022-12-18T11:25:32;1.00;99.90
3262;DHT22;1643;47.746;9.000;2022-12-18T11:28:04;1.00;99.90
3262;DHT22;1643;47.746;9.000;2022-12-18T11:30:35;1.10;99.90
3262;DHT22;1643;47.746;9.000;2022-12-18T11:33:09;1.20;99.90
3262;DHT22;1643;47.746;9.000;2022-12-18T11:38:12;1.20;99.90
3262;DHT22;1643;47.746;9.000;2022-12-18T11:40:44;1.20;99.90
3262;DHT22;1643;47.746;9.000;2022-12-18T11:43:16;1.20;99.90
3262;DHT22;1643;47.746;9.000;2022-12-18T11:45:53;1.20;99.90
3262;DHT22;1643;47.746;9.000;2022-12-18T11:48:27;1.10;99.90
3262;DHT22;1643;47.746;9.000;2022-12-18T11:50:55;1.10;99.90
3262;DHT22;1643;47.746;9.000;2022-12-18T11:53:21;1.10;99.90
3262;DHT22;1643;47.746;9.000;2022-12-18T12:06:47;1.10;99.90
3262;DHT22;1643;47.746;9.000;2022-12-18T12:25:22;1.40;99.90
3262;DHT22;1643;47.746;9.000;2022-12-18T12:28:04;1.30;99.90
3262;DHT22;1643;47.746;9.000;2022-12-18T12:33:17;1.40;99.90
3262;DHT22;1643;47.746;9.000;2022-12-18T12:38:31;1.40;99.90
3262;DHT22;1643;47.746;9.000;2022-12-18T12:41:11;1.40;99.90
3262;DHT22;1643;47.746;9.000;2022-12-18T12:43:59;1.40;99.90
3262;DHT22;1643;47.746;9.000;2022-12-18T12:46:27;1.40;99.90
3262;DHT22;1643;47.746;9.000;2022-12-18T12:49:01;1.40;99.90
3262;DHT22;1643;47.746;9.000;2022-12-18T12:54:01;1.40;99.90
3262;DHT22;1643;47.746;9.000;2022-12-18T12:59:26;1.40;99.90
3262;DHT22;1643;47.746;9.000;2022-12-18T13:04:42;1.30;99.90
3262;DHT22;1643;47.746;9.000;2022-12-18T13:07:17;1.40;99.90
3262;DHT22;1643;47.746;9.000;2022-12-18T13:10:22;1.40;99.90
3262;DHT22;1643;47.746;9.000;2022-12-18T13:12:55;1.40;99.90
3262;DHT22;1643;47.746;9.000;2022-12-18T13:20:39;1.30;99.90
3262;DHT22;1643;47.746;9.000;2022-12-18T13:31:09;1.30;99.90
3262;DHT22;1643;47.746;9.000;2022-12-18T13:38:39;1.30;99.90
3262;DHT22;1643;47.746;9.000;2022-12-18T13:43:52;1.40;99.90
3262;DHT22;1643;47.746;9.000;2022-12-18T13:49:03;1.30;99.90
3262;DHT22;1643;47.746;9.000;2022-12-18T13:51:32;1.30;99.90
3262;DHT22;1643;47.746;9.000;2022-12-18T13:54:01;1.40;99.90
3262;DHT22;1643;47.746;9.000;2022-12-18T13:56:31;1.30;99.90
3262;DHT22;1643;47.746;9.000;2022-12-18T13:59:24;1.40;99.90
3262;DHT22;1643;47.746;9.000;2022-12-18T14:01:58;1.30;99.90
3262;DHT22;1643;47.746;9.000;2022-12-18T14:04:27;1.30;99.90
3262;DHT22;1643;47.746;9.000;2022-12-18T14:07:01;1.30;99.90
3262;DHT22;1643;47.746;9.000;2022-12-18T14:09:30;1.20;99.90
3262;DHT22;1643;47.746;9.000;2022-12-18T14:11:57;1.20;99.90
3262;DHT22;1643;47.746;9.000;2022-12-18T14:14:48;1.30;99.90
3262;DHT22;1643;47.746;9.000;2022-12-18T14:17:15;1.30;99.90
3262;DHT22;1643;47.746;9.000;2022-12-18T14:19:46;1.30;99.90
3262;DHT22;1643;47.746;9.000;2022-12-18T14:22:16;1.20;99.90
3262;DHT22;1643;47.746;9.000;2022-12-18T14:24:42;1.20;99.90
3262;DHT22;1643;47.746;9.000;2022-12-18T14:27:25;1.20;99.90
3262;DHT22;1643;47.746;9.000;2022-12-18T14:29:51;1.30;99.90
3262;DHT22;1643;47.746;9.000;2022-12-18T14:32:18;1.30;99.90
3262;DHT22;1643;47.746;9.000;2022-12-18T14:34:52;1.30;99.90
3262;DHT22;1643;47.746;9.000;2022-12-18T14:37:24;1.30;99.90
3262;DHT22;1643;47.746;9.000;2022-12-18T14:40:12;1.30;99.90
3262;DHT22;1643;47.746;9.000;2022-12-18T14:42:39;1.30;99.90
3262;DHT22;1643;47.746;9.000;2022-12-18T14:45:39;1.30;99.90
3262;DHT22;1643;47.746;9.000;2022-12-18T14:50:39;1.30;99.90
3262;DHT22;1643;47.746;9.000;2022-12-18T14:53:05;1.20;99.90
3262;DHT22;1643;47.746;9.000;2022-12-18T14:55:31;1.20;99.90
3262;DHT22;1643;47.746;9.000;2022-12-18T14:57:57;1.20;99.90
3262;DHT22;1643;47.746;9.000;2022-12-18T15:00:24;1.20;99.90
3262;DHT22;1643;47.746;9.000;2022-12-18T15:02:54;1.20;99.90
3262;DHT22;1643;47.746;9.000;2022-12-18T15:05:28;1.20;99.90
3262;DHT22;1643;47.746;9.000;2022-12-18T15:07:59;1.20;99.90
3262;DHT22;1643;47.746;9.000;2022-12-18T15:10:26;1.20;99.90
3262;DHT22;1643;47.746;9.000;2022-12-18T15:20:49;1.20;99.90
3262;DHT22;1643;47.746;9.000;2022-12-18T15:25:46;1.20;99.90
3262;DHT22;1643;47.746;9.000;2022-12-18T15:28:39;1.10;99.90
3262;DHT22;1643;47.746;9.000;2022-12-18T15:33:45;1.10;99.90
3262;DHT22;1643;47.746;9.000;2022-12-18T15:36:25;1.10;99.90
3262;DHT22;1643;47.746;9.000;2022-12-18T15:38:52;1.20;99.90
3262;DHT22;1643;47.746;9.000;2022-12-18T15:41:20;1.10;99.90
3262;DHT22;1643;47.746;9.000;2022-12-18T15:43:47;1.10;99.90
3262;DHT22;1643;47.746;9.000;2022-12-18T15:46:21;1.10;99.90
3262;DHT22;1643;47.746;9.000;2022-12-18T15:48:52;1.10;99.90
3262;DHT22;1643;47.746;9.000;2022-12-18T15:51:33;1.10;99.90
3262;DHT22;1643;47.746;9.000;2022-12-18T15:54:02;1.10;99.90
3262;DHT22;1643;47.746;9.000;2022-12-18T15:56:29;1.10;99.90
3262;DHT22;1643;47.746;9.000;2022-12-18T15:59:16;1.00;99.90
3262;DHT22;1643;47.746;9.000;2022-12-18T16:01:44;1.10;99.90
3262;DHT22;1643;47.746;9.000;2022-12-18T16:04:13;1.10;99.90
3262;DHT22;1643;47.746;9.000;2022-12-18T16:06:39;1.00;99.90
3262;DHT22;1643;47.746;9.000;2022-12-18T16:09:06;1.10;99.90
3262;DHT22;1643;47.746;9.000;2022-12-18T16:11:34;1.10;99.90
3262;DHT22;1643;47.746;9.000;2022-12-18T16:14:23;1.10;99.90
3262;DHT22;1643;47.746;9.000;2022-12-18T16:16:54;1.10;99.90
3262;DHT22;1643;47.746;9.000;2022-12-18T16:19:20;1.10;99.90
3262;DHT22;1643;47.746;9.000;2022-12-18T16:21:50;1.10;99.90
3262;DHT22;1643;47.746;9.000;2022-12-18T16:24:34;1.10;99.90
3262;DHT22;1643;47.746;9.000;2022-12-18T16:27:01;1.10;99.90
3262;DHT22;1643;47.746;9.000;2022-12-18T16:29:28;1.10;99.90
3262;DHT22;1643;47.746;9.000;2022-12-18T16:31:55;1.10;99.90
3262;DHT22;1643;47.746;9.000;2022-12-18T16:34:23;1.10;99.90
3262;DHT22;1643;47.746;9.000;2022-12-18T16:36:51;1.10;99.90
3262;DHT22;1643;47.746;9.000;2022-12-18T16:39:18;1.10;99.90
3262;DHT22;1643;47.746;9.000;2022-12-18T16:41:44;1.10;99.90
3262;DHT22;1643;47.746;9.000;2022-12-18T16:44:10;1.10;99.90
3262;DHT22;1643;47.746;9.000;2022-12-18T16:46:36;1.00;99.90
3262;DHT22;1643;47.746;9.000;2022-12-18T16:49:02;1.10;99.90
3262;DHT22;1643;47.746;9.000;2022-12-18T16:51:29;1.10;99.90
3262;DHT22;1643;47.746;9.000;2022-12-18T16:53:55;1.10;99.90
3262;DHT22;1643;47.746;9.000;2022-12-18T16:56:24;1.00;99.90
3262;DHT22;1643;47.746;9.000;2022-12-18T16:58:54;1.00;99.90
3262;DHT22;1643;47.746;9.000;2022-12-18T17:01:20;1.00;99.90
3262;DHT22;1643;47.746;9.000;2022-12-18T17:04:04;1.00;99.90
3262;DHT22;1643;47.746;9.000;2022-12-18T17:06:32;1.00;99.90
3262;DHT22;1643;47.746;9.000;2022-12-18T17:09:00;1.00;99.90
3262;DHT22;1643;47.746;9.000;2022-12-18T17:11:27;1.10;99.90
3262;DHT22;1643;47.746;9.000;2022-12-18T17:13:53;1.10;99.90
3262;DHT22;1643;47.746;9.000;2022-12-18T17:16:20;1.00;99.90
3262;DHT22;1643;47.746;9.000;2022-12-18T17:18:46;1.00;99.90
3262;DHT22;1643;47.746;9.000;2022-12-18T17:21:12;1.00;99.90
3262;DHT22;1643;47.746;9.000;2022-12-18T17:23:39;1.00;99.90
3262;DHT22;1643;47.746;9.000;2022-12-18T17:26:05;1.00;99.90
3262;DHT22;1643;47.746;9.000;2022-12-18T17:28:33;1.00;99.90
3262;DHT22;1643;47.746;9.000;2022-12-18T17:30:59;1.00;99.90
3262;DHT22;1643;47.746;9.000;2022-12-18T17:33:25;1.10;99.90
3262;DHT22;1643;47.746;9.000;2022-12-18T17:35:52;1.10;99.90
3262;DHT22;1643;47.746;9.000;2022-12-18T17:38:18;1.00;99.90
3262;DHT22;1643;47.746;9.000;2022-12-18T17:40:44;1.10;99.90
3262;DHT22;1643;47.746;9.000;2022-12-18T17:43:10;1.10;99.90
3262;DHT22;1643;47.746;9.000;2022-12-18T17:45:39;1.10;99.90
3262;DHT22;1643;47.746;9.000;2022-12-18T17:48:06;1.10;99.90
3262;DHT22;1643;47.746;9.000;2022-12-18T17:50:33;1.20;99.90
3262;DHT22;1643;47.746;9.000;2022-12-18T17:52:59;1.20;99.90
3262;DHT22;1643;47.746;9.000;2022-12-18T17:55:25;1.20;99.90
3262;DHT22;1643;47.746;9.000;2022-12-18T17:57:51;1.10;99.90
3262;DHT22;1643;47.746;9.000;2022-12-18T18:00:17;1.10;99.90
3262;DHT22;1643;47.746;9.000;2022-12-18T18:02:43;1.10;99.90
3262;DHT22;1643;47.746;9.000;2022-12-18T18:05:09;1.10;99.90
3262;DHT22;1643;47.746;9.000;2022-12-18T18:07:36;1.10;99.90
3262;DHT22;1643;47.746;9.000;2022-12-18T18:10:02;1.10;99.90
3262;DHT22;1643;47.746;9.000;2022-12-18T18:12:28;1.10;99.90
3262;DHT22;1643;47.746;9.000;2022-12-18T18:15:12;1.10;99.90
3262;DHT22;1643;47.746;9.000;2022-12-18T18:17:38;1.10;99.90
3262;DHT22;1643;47.746;9.000;2022-12-18T18:20:04;1.10;99.90
3262;DHT22;1643;47.746;9.000;2022-12-18T18:22:31;1.20;99.90